createdAt,value
2018-06-24T00:00:20.148Z,24
2018-06-24T00:01:10.259Z,24
2018-06-24T00:01:59.989Z,24
2018-06-24T00:02:50.096Z,24
2018-06-24T00:03:40.677Z,24
2018-06-24T00:04:30.716Z,24
2018-06-24T00:05:20.269Z,24
2018-06-24T00:06:10.626Z,23.9
2018-06-24T00:07:00.971Z,24
2018-06-24T00:07:50.221Z,23.9
2018-06-24T00:08:41.072Z,23.9
2018-06-24T00:09:30.598Z,23.9
2018-06-24T00:10:20.919Z,23.9
2018-06-24T00:11:11.228Z,23.9
2018-06-24T00:12:00.460Z,24
2018-06-24T00:12:51.077Z,23.9
2018-06-24T00:13:41.415Z,23.9
2018-06-24T00:14:30.699Z,23.9
2018-06-24T00:15:21.337Z,23.9
2018-06-24T00:16:11.076Z,23.9
2018-06-24T00:17:00.880Z,23.9
2018-06-24T00:17:51.188Z,23.9
2018-06-24T00:18:40.701Z,23.9
2018-06-24T00:19:30.761Z,23.9
2018-06-24T00:20:21.668Z,23.9
2018-06-24T00:21:11.439Z,23.9
2018-06-24T00:22:01.760Z,23.9
2018-06-24T00:22:50.725Z,23.9
2018-06-24T00:23:41.672Z,23.9
2018-06-24T00:24:31.689Z,23.9
2018-06-24T00:25:22.113Z,23.9
2018-06-24T00:26:11.823Z,23.9
2018-06-24T00:27:02.169Z,23.9
2018-06-24T00:27:52.215Z,23.9
2018-06-24T00:28:41.753Z,23.9
2018-06-24T00:29:32.420Z,23.9
2018-06-24T00:30:22.408Z,23.9
2018-06-24T00:31:12.037Z,23.9
2018-06-24T00:32:01.545Z,23.9
2018-06-24T00:32:51.573Z,23.9
2018-06-24T00:33:42.197Z,23.9
2018-06-24T00:34:32.499Z,23.9
2018-06-24T00:35:22.299Z,23.9
2018-06-24T00:36:12.932Z,23.9
2018-06-24T00:37:02.942Z,23.9
2018-06-24T00:37:53.009Z,23.9
2018-06-24T00:38:43.017Z,23.9
2018-06-24T00:39:33.081Z,23.9
2018-06-24T00:40:23.204Z,23.9
2018-06-24T00:41:13.216Z,23.9
2018-06-24T00:42:03.276Z,23.9
2018-06-24T00:42:53.395Z,23.9
2018-06-24T00:43:43.142Z,23.9
2018-06-24T00:44:33.210Z,23.9
2018-06-24T00:45:23.516Z,23.9
2018-06-24T00:46:13.360Z,23.9
2018-06-24T00:47:03.941Z,23.9
2018-06-24T00:47:54.026Z,23.9
2018-06-24T00:48:44.035Z,23.9
2018-06-24T00:49:33.844Z,23.9
2018-06-24T00:50:23.639Z,23.9
2018-06-24T00:51:13.940Z,23.9
2018-06-24T00:52:03.757Z,23.8
2018-06-24T00:52:54.368Z,23.9
2018-06-24T00:53:44.234Z,23.8
2018-06-24T00:54:33.693Z,23.8
2018-06-24T00:55:24.255Z,23.8
2018-06-24T00:56:14.397Z,23.8
2018-06-24T00:57:04.397Z,23.8
2018-06-24T00:57:54.500Z,23.8
2018-06-24T00:58:44.252Z,23.8
2018-06-24T00:59:34.271Z,23.8
2018-06-24T01:00:24.679Z,23.8
2018-06-24T01:01:14.993Z,23.8
2018-06-24T01:02:04.803Z,23.8
2018-06-24T01:02:54.596Z,23.8
2018-06-24T01:03:44.696Z,23.8
2018-06-24T01:04:34.448Z,23.8
2018-06-24T01:05:24.287Z,23.8
2018-06-24T01:06:14.628Z,23.8
2018-06-24T01:07:04.348Z,23.8
2018-06-24T01:07:55.543Z,23.8
2018-06-24T01:08:45.272Z,23.8
2018-06-24T01:09:35.078Z,23.8
2018-06-24T01:10:24.600Z,23.8
2018-06-24T01:11:14.978Z,23.8
2018-06-24T01:12:04.722Z,23.8
2018-06-24T01:12:55.633Z,23.8
2018-06-24T01:13:45.360Z,23.8
2018-06-24T01:14:35.707Z,23.8
2018-06-24T01:15:25.815Z,23.8
2018-06-24T01:16:15.303Z,23.8
2018-06-24T01:17:05.385Z,23.8
2018-06-24T01:17:56.270Z,23.8
2018-06-24T01:18:46.310Z,23.8
2018-06-24T01:19:36.162Z,23.8
2018-06-24T01:20:26.215Z,23.8
2018-06-24T01:21:16.214Z,23.8
2018-06-24T01:22:06.330Z,23.8
2018-06-24T01:22:56.346Z,23.8
2018-06-24T01:23:46.662Z,23.8
2018-06-24T01:24:36.743Z,23.8
2018-06-24T01:25:26.508Z,23.8
2018-06-24T01:26:16.309Z,23.8
2018-06-24T01:27:06.616Z,23.8
2018-06-24T01:27:56.769Z,23.8
2018-06-24T01:28:45.963Z,23.8
2018-06-24T01:29:36.861Z,23.8
2018-06-24T01:30:26.344Z,23.8
2018-06-24T01:31:16.161Z,23.8
2018-06-24T01:32:06.489Z,23.8
2018-06-24T01:32:56.866Z,23.7
2018-06-24T01:33:46.874Z,23.8
2018-06-24T01:34:37.513Z,23.8
2018-06-24T01:35:26.463Z,23.8
2018-06-24T01:36:17.078Z,23.7
2018-06-24T01:37:06.665Z,23.7
2018-06-24T01:37:56.929Z,23.7
2018-06-24T01:38:47.795Z,23.7
2018-06-24T01:39:37.323Z,23.8
2018-06-24T01:40:27.983Z,23.7
2018-06-24T01:41:18.031Z,23.7
2018-06-24T01:42:07.766Z,23.8
2018-06-24T01:42:58.093Z,23.7
2018-06-24T01:43:48.231Z,23.7
2018-06-24T01:44:37.984Z,23.7
2018-06-24T01:45:28.029Z,23.7
2018-06-24T01:46:18.360Z,23.7
2018-06-24T01:47:08.167Z,23.7
2018-06-24T01:47:58.470Z,23.7
2018-06-24T01:48:48.548Z,23.7
2018-06-24T01:49:38.115Z,23.7
2018-06-24T01:50:28.388Z,23.7
2018-06-24T01:51:18.612Z,23.7
2018-06-24T01:52:08.264Z,23.7
2018-06-24T01:52:57.731Z,23.7
2018-06-24T01:53:47.593Z,23.7
2018-06-24T01:54:38.180Z,23.7
2018-06-24T01:55:28.540Z,23.7
2018-06-24T01:56:19.138Z,23.7
2018-06-24T01:57:08.077Z,23.7
2018-06-24T01:57:58.700Z,23.7
2018-06-24T01:58:48.739Z,23.7
2018-06-24T01:59:38.548Z,23.7
2018-06-24T02:00:28.661Z,23.7
2018-06-24T02:01:18.927Z,23.6
2018-06-24T02:02:08.996Z,23.7
2018-06-24T02:02:59.688Z,23.7
2018-06-24T02:03:48.820Z,23.6
2018-06-24T02:04:38.928Z,23.6
2018-06-24T02:05:28.679Z,23.6
2018-06-24T02:06:19.622Z,23.6
2018-06-24T02:07:09.674Z,23.6
2018-06-24T02:07:58.879Z,23.6
2018-06-24T02:08:50.059Z,23.6
2018-06-24T02:09:39.529Z,23.6
2018-06-24T02:10:29.345Z,23.6
2018-06-24T02:11:19.396Z,23.6
2018-06-24T02:12:09.493Z,23.6
2018-06-24T02:12:59.585Z,23.6
2018-06-24T02:13:50.473Z,23.6
2018-06-24T02:14:40.513Z,23.6
2018-06-24T02:15:30.557Z,23.6
2018-06-24T02:16:20.639Z,23.6
2018-06-24T02:17:10.404Z,23.6
2018-06-24T02:18:00.701Z,23.6
2018-06-24T02:18:50.443Z,23.6
2018-06-24T02:19:40.586Z,23.6
2018-06-24T02:20:30.905Z,23.6
2018-06-24T02:21:20.440Z,23.6
2018-06-24T02:22:11.071Z,23.6
2018-06-24T02:23:00.303Z,23.6
2018-06-24T02:23:51.171Z,23.6
2018-06-24T02:24:40.414Z,23.6
2018-06-24T02:25:30.843Z,23.6
2018-06-24T02:26:21.107Z,23.5
2018-06-24T02:27:10.853Z,23.6
2018-06-24T02:28:00.925Z,23.5
2018-06-24T02:28:51.261Z,23.5
2018-06-24T02:29:41.080Z,23.5
2018-06-24T02:30:31.529Z,23.5
2018-06-24T02:31:21.456Z,23.5
2018-06-24T02:32:11.027Z,23.5
2018-06-24T02:33:01.315Z,23.5
2018-06-24T02:33:51.675Z,23.5
2018-06-24T02:34:41.161Z,23.5
2018-06-24T02:35:31.828Z,23.5
2018-06-24T02:36:21.597Z,23.5
2018-06-24T02:37:12.184Z,23.4
2018-06-24T02:38:01.125Z,23.5
2018-06-24T02:38:51.477Z,23.5
2018-06-24T02:39:42.056Z,23.4
2018-06-24T02:40:31.827Z,23.4
2018-06-24T02:41:21.369Z,23.5
2018-06-24T02:42:12.542Z,23.5
2018-06-24T02:43:02.610Z,23.5
2018-06-24T02:43:52.394Z,23.5
2018-06-24T02:44:42.709Z,23.5
2018-06-24T02:45:32.539Z,23.5
2018-06-24T02:46:22.874Z,23.5
2018-06-24T02:47:12.348Z,23.5
2018-06-24T02:48:02.459Z,23.5
2018-06-24T02:48:53.042Z,23.5
2018-06-24T02:49:43.129Z,23.5
2018-06-24T02:50:33.258Z,23.5
2018-06-24T02:51:21.879Z,23.5
2018-06-24T02:52:13.022Z,23.5
2018-06-24T02:53:02.296Z,23.5
2018-06-24T02:53:53.539Z,23.5
2018-06-24T02:54:42.699Z,23.5
2018-06-24T02:55:33.362Z,23.5
2018-06-24T02:56:23.616Z,23.5
2018-06-24T02:57:13.656Z,23.5
2018-06-24T02:58:03.175Z,23.5
2018-06-24T02:58:53.811Z,23.5
2018-06-24T02:59:43.365Z,23.5
2018-06-24T03:00:33.625Z,23.5
2018-06-24T03:01:23.156Z,23.5
2018-06-24T03:02:14.075Z,23.5
2018-06-24T03:03:03.313Z,23.5
2018-06-24T03:03:53.611Z,23.5
2018-06-24T03:04:43.396Z,23.5
2018-06-24T03:05:33.758Z,23.5
2018-06-24T03:06:23.588Z,23.5
2018-06-24T03:07:13.604Z,23.4
2018-06-24T03:08:04.271Z,23.4
2018-06-24T03:08:53.426Z,23.5
2018-06-24T03:09:44.073Z,23.5
2018-06-24T03:10:34.538Z,23.5
2018-06-24T03:11:24.200Z,23.5
2018-06-24T03:12:14.261Z,23.5
2018-06-24T03:13:04.618Z,23.4
2018-06-24T03:13:54.096Z,23.4
2018-06-24T03:14:44.490Z,23.4
2018-06-24T03:15:34.811Z,23.4
2018-06-24T03:16:24.576Z,23.4
2018-06-24T03:17:14.648Z,23.4
2018-06-24T03:18:04.682Z,23.4
2018-06-24T03:18:55.241Z,23.4
2018-06-24T03:19:45.392Z,23.4
2018-06-24T03:20:35.146Z,23.4
2018-06-24T03:21:24.673Z,23.4
2018-06-24T03:22:15.239Z,23.4
2018-06-24T03:23:04.549Z,23.4
2018-06-24T03:23:54.238Z,23.4
2018-06-24T03:24:44.883Z,23.4
2018-06-24T03:25:35.392Z,23.4
2018-06-24T03:26:24.991Z,23.4
2018-06-24T03:27:15.598Z,23.4
2018-06-24T03:28:05.690Z,23.4
2018-06-24T03:28:55.970Z,23.4
2018-06-24T03:29:44.671Z,23.4
2018-06-24T03:30:36.059Z,23.4
2018-06-24T03:31:25.661Z,23.4
2018-06-24T03:32:15.736Z,23.4
2018-06-24T03:33:06.368Z,23.4
2018-06-24T03:33:56.087Z,23.4
2018-06-24T03:34:46.426Z,23.4
2018-06-24T03:35:36.485Z,23.4
2018-06-24T03:36:26.399Z,23.4
2018-06-24T03:37:16.381Z,23.4
2018-06-24T03:38:06.689Z,23.4
2018-06-24T03:38:56.483Z,23.4
2018-06-24T03:39:46.803Z,23.4
2018-06-24T03:40:36.868Z,23.4
2018-06-24T03:41:26.670Z,23.4
2018-06-24T03:42:16.710Z,23.4
2018-06-24T03:43:07.085Z,23.4
2018-06-24T03:43:57.207Z,23.4
2018-06-24T03:44:46.338Z,23.4
2018-06-24T03:45:37.225Z,23.4
2018-06-24T03:46:26.473Z,23.4
2018-06-24T03:47:16.880Z,23.4
2018-06-24T03:48:07.455Z,23.4
2018-06-24T03:48:57.574Z,23.4
2018-06-24T03:49:47.095Z,23.4
2018-06-24T03:50:37.688Z,23.4
2018-06-24T03:51:27.140Z,23.4
2018-06-24T03:52:17.214Z,23.4
2018-06-24T03:53:07.591Z,23.4
2018-06-24T03:53:57.636Z,23.3
2018-06-24T03:54:46.831Z,23.4
2018-06-24T03:55:37.479Z,23.3
2018-06-24T03:56:27.263Z,23.3
2018-06-24T03:57:17.845Z,23.3
2018-06-24T03:58:08.692Z,23.4
2018-06-24T03:58:57.181Z,23.3
2018-06-24T03:59:48.303Z,23.3
2018-06-24T04:00:37.546Z,23.3
2018-06-24T04:01:27.889Z,23.3
2018-06-24T04:02:17.408Z,23.3
2018-06-24T04:03:08.288Z,23.3
2018-06-24T04:03:58.659Z,23.3
2018-06-24T04:04:49.321Z,23.3
2018-06-24T04:05:37.662Z,23.3
2018-06-24T04:06:27.759Z,23.3
2018-06-24T04:07:18.911Z,23.3
2018-06-24T04:08:09.031Z,23.3
2018-06-24T04:08:58.485Z,23.3
2018-06-24T04:09:49.114Z,23.3
2018-06-24T04:10:39.167Z,23.3
2018-06-24T04:11:28.964Z,23.3
2018-06-24T04:12:18.431Z,23.3
2018-06-24T04:13:08.199Z,23.3
2018-06-24T04:13:59.103Z,23.3
2018-06-24T04:14:48.626Z,23.3
2018-06-24T04:15:38.966Z,23.3
2018-06-24T04:16:29.051Z,23.3
2018-06-24T04:17:19.061Z,23.3
2018-06-24T04:18:08.914Z,23.3
2018-06-24T04:18:59.160Z,23.3
2018-06-24T04:19:49.288Z,23.3
2018-06-24T04:20:39.617Z,23.3
2018-06-24T04:21:29.951Z,23.3
2018-06-24T04:22:19.822Z,23.3
2018-06-24T04:23:09.249Z,23.3
2018-06-24T04:23:59.524Z,23.3
2018-06-24T04:24:49.347Z,23.3
2018-06-24T04:25:40.670Z,23.3
2018-06-24T04:26:28.978Z,23.3
2018-06-24T04:27:19.899Z,23.3
2018-06-24T04:28:09.980Z,23.3
2018-06-24T04:29:00.019Z,23.3
2018-06-24T04:29:50.083Z,23.3
2018-06-24T04:30:40.155Z,23.3
2018-06-24T04:31:29.933Z,23.3
2018-06-24T04:32:20.317Z,23.3
2018-06-24T04:33:09.805Z,23.3
2018-06-24T04:33:59.842Z,23.3
2018-06-24T04:34:50.417Z,23.3
2018-06-24T04:35:41.067Z,23.3
2018-06-24T04:36:30.495Z,23.3
2018-06-24T04:37:20.057Z,23.3
2018-06-24T04:38:10.928Z,23.3
2018-06-24T04:39:01.326Z,23.3
2018-06-24T04:39:51.369Z,23.3
2018-06-24T04:40:40.554Z,23.3
2018-06-24T04:41:30.870Z,23.3
2018-06-24T04:42:20.692Z,23.3
2018-06-24T04:43:10.510Z,23.3
2018-06-24T04:44:01.329Z,23.3
2018-06-24T04:44:51.717Z,23.3
2018-06-24T04:45:41.470Z,23.3
2018-06-24T04:46:31.536Z,23.3
2018-06-24T04:47:21.874Z,23.3
2018-06-24T04:48:11.713Z,23.3
2018-06-24T04:49:01.767Z,23.3
2018-06-24T04:49:52.084Z,23.3
2018-06-24T04:50:42.114Z,23.3
2018-06-24T04:51:31.684Z,23.3
2018-06-24T04:52:21.950Z,23.3
2018-06-24T04:53:12.327Z,23.3
2018-06-24T04:54:02.065Z,23.2
2018-06-24T04:54:51.607Z,23.2
2018-06-24T04:55:42.235Z,23.2
2018-06-24T04:56:32.565Z,23.2
2018-06-24T04:57:22.632Z,23.2
2018-06-24T04:58:11.569Z,23.2
2018-06-24T04:59:02.743Z,23.2
2018-06-24T04:59:52.258Z,23.3
2018-06-24T05:00:42.607Z,23.3
2018-06-24T05:01:31.826Z,23.3
2018-06-24T05:02:21.917Z,23.3
2018-06-24T05:03:12.215Z,23.3
2018-06-24T05:04:02.566Z,23.3
2018-06-24T05:04:53.201Z,23.3
2018-06-24T05:05:43.099Z,23.3
2018-06-24T05:06:34.023Z,23.3
2018-06-24T05:07:23.374Z,23.3
2018-06-24T05:08:13.147Z,23.3
2018-06-24T05:09:02.667Z,23.3
2018-06-24T05:09:52.452Z,23.3
2018-06-24T05:10:43.620Z,23.2
2018-06-24T05:11:33.427Z,23.2
2018-06-24T05:12:23.731Z,23.2
2018-06-24T05:13:13.546Z,23.2
2018-06-24T05:14:02.851Z,23.2
2018-06-24T05:14:54.011Z,23.2
2018-06-24T05:15:44.044Z,23.3
2018-06-24T05:16:33.503Z,23.3
2018-06-24T05:17:23.299Z,23.3
2018-06-24T05:18:13.367Z,23.2
2018-06-24T05:19:02.854Z,23.2
2018-06-24T05:19:53.725Z,23.2
2018-06-24T05:20:44.390Z,23.3
2018-06-24T05:21:34.484Z,23.3
2018-06-24T05:22:23.956Z,23.3
2018-06-24T05:23:14.054Z,23.3
2018-06-24T05:24:04.363Z,23.3
2018-06-24T05:24:54.383Z,23.3
2018-06-24T05:25:44.707Z,23.3
2018-06-24T05:26:34.585Z,23.3
2018-06-24T05:27:24.302Z,23.3
2018-06-24T05:28:14.680Z,23.3
2018-06-24T05:29:04.232Z,23.3
2018-06-24T05:29:54.321Z,23.3
2018-06-24T05:30:44.361Z,23.3
2018-06-24T05:31:33.615Z,23.3
2018-06-24T05:32:24.467Z,23.3
2018-06-24T05:33:14.820Z,23.3
2018-06-24T05:34:04.903Z,23.3
2018-06-24T05:34:53.838Z,23.3
2018-06-24T05:35:45.470Z,23.3
2018-06-24T05:36:35.539Z,23.3
2018-06-24T05:37:24.822Z,23.3
2018-06-24T05:38:15.676Z,23.3
2018-06-24T05:39:05.738Z,23.3
2018-06-24T05:39:55.391Z,23.3
2018-06-24T05:40:45.618Z,23.3
2018-06-24T05:41:35.078Z,23.3
2018-06-24T05:42:26.027Z,23.3
2018-06-24T05:43:16.376Z,23.3
2018-06-24T05:44:05.260Z,23.3
2018-06-24T05:44:55.658Z,23.3
2018-06-24T05:45:46.363Z,23.3
2018-06-24T05:46:35.798Z,23.3
2018-06-24T05:47:26.366Z,23.3
2018-06-24T05:48:16.443Z,23.3
2018-06-24T05:49:06.236Z,23.3
2018-06-24T05:49:55.761Z,23.3
2018-06-24T05:50:46.678Z,23.3
2018-06-24T05:51:36.421Z,23.3
2018-06-24T05:52:25.939Z,23.3
2018-06-24T05:53:15.724Z,23.3
2018-06-24T05:54:06.611Z,23.3
2018-06-24T05:54:56.674Z,23.3
2018-06-24T05:55:46.434Z,23.3
2018-06-24T05:56:36.768Z,23.3
2018-06-24T05:57:26.617Z,23.3
2018-06-24T05:58:16.650Z,23.3
2018-06-24T05:59:06.671Z,23.3
2018-06-24T05:59:56.787Z,23.3
2018-06-24T06:00:47.370Z,23.3
2018-06-24T06:01:37.409Z,23.3
2018-06-24T06:02:27.530Z,23.3
2018-06-24T06:03:17.054Z,23.3
2018-06-24T06:04:07.108Z,23.3
2018-06-24T06:04:57.738Z,23.3
2018-06-24T06:05:47.001Z,23.3
2018-06-24T06:06:37.854Z,23.3
2018-06-24T06:07:27.644Z,23.3
2018-06-24T06:08:17.705Z,23.3
2018-06-24T06:09:08.038Z,23.3
2018-06-24T06:09:57.606Z,23.3
2018-06-24T06:10:48.006Z,23.3
2018-06-24T06:11:37.660Z,23.3
2018-06-24T06:12:27.988Z,23.3
2018-06-24T06:13:18.427Z,23.3
2018-06-24T06:14:08.164Z,23.3
2018-06-24T06:14:58.560Z,23.3
2018-06-24T06:15:48.232Z,23.3
2018-06-24T06:16:38.318Z,23.3
2018-06-24T06:17:28.591Z,23.3
2018-06-24T06:18:18.687Z,23.3
2018-06-24T06:19:08.425Z,23.3
2018-06-24T06:19:58.828Z,23.3
2018-06-24T06:20:48.629Z,23.3
2018-06-24T06:21:38.418Z,23.3
2018-06-24T06:22:28.992Z,23.3
2018-06-24T06:23:18.761Z,23.3
2018-06-24T06:24:08.962Z,23.3
2018-06-24T06:24:58.656Z,23.3
2018-06-24T06:25:49.263Z,23.3
2018-06-24T06:26:39.316Z,23.3
2018-06-24T06:27:29.098Z,23.3
2018-06-24T06:28:19.143Z,23.3
2018-06-24T06:29:08.965Z,23.3
2018-06-24T06:29:59.103Z,23.3
2018-06-24T06:30:49.348Z,23.3
2018-06-24T06:31:39.698Z,23.3
2018-06-24T06:32:29.218Z,23.3
2018-06-24T06:33:19.030Z,23.3
2018-06-24T06:34:09.056Z,23.3
2018-06-24T06:34:59.375Z,23.3
2018-06-24T06:35:49.435Z,23.3
2018-06-24T06:36:39.569Z,23.3
2018-06-24T06:37:29.610Z,23.3
2018-06-24T06:38:20.178Z,23.3
2018-06-24T06:39:09.191Z,23.3
2018-06-24T06:40:00.342Z,23.3
2018-06-24T06:40:50.158Z,23.3
2018-06-24T06:41:39.586Z,23.3
2018-06-24T06:42:29.965Z,23.3
2018-06-24T06:43:20.260Z,23.3
2018-06-24T06:44:10.360Z,23.3
2018-06-24T06:45:02.138Z,23.3
2018-06-24T06:45:52.506Z,23.3
2018-06-24T06:46:39.700Z,23.3
2018-06-24T06:47:30.645Z,23.3
2018-06-24T06:48:20.411Z,23.3
2018-06-24T06:49:11.030Z,23.3
2018-06-24T06:49:59.670Z,23.3
2018-06-24T06:50:51.165Z,23.3
2018-06-24T06:51:41.211Z,23.3
2018-06-24T06:52:30.733Z,23.3
2018-06-24T06:53:20.096Z,23.3
2018-06-24T06:54:10.561Z,23.3
2018-06-24T06:55:01.210Z,23.3
2018-06-24T06:55:50.427Z,23.3
2018-06-24T06:56:40.182Z,23.3
2018-06-24T06:57:30.417Z,23.3
2018-06-24T06:58:21.150Z,23.3
2018-06-24T06:59:11.212Z,23.3
2018-06-24T07:00:01.657Z,23.3
2018-06-24T07:00:51.907Z,23.3
2018-06-24T07:01:41.212Z,23.3
2018-06-24T07:02:31.744Z,23.2
2018-06-24T07:03:22.789Z,23.3
2018-06-24T07:04:12.141Z,23.3
2018-06-24T07:05:01.653Z,23.3
2018-06-24T07:05:52.953Z,23.3
2018-06-24T07:06:42.369Z,23.3
2018-06-24T07:07:32.450Z,23.2
2018-06-24T07:08:22.223Z,23.2
2018-06-24T07:09:11.964Z,23.2
2018-06-24T07:10:02.289Z,23.2
2018-06-24T07:10:52.116Z,23.2
2018-06-24T07:11:42.013Z,23.2
2018-06-24T07:12:32.015Z,23.2
2018-06-24T07:13:22.310Z,23.2
2018-06-24T07:14:12.344Z,23.2
2018-06-24T07:15:02.427Z,23.2
2018-06-24T07:15:52.542Z,23.2
2018-06-24T07:16:42.299Z,23.1
2018-06-24T07:17:32.623Z,23.2
2018-06-24T07:18:22.249Z,23.1
2018-06-24T07:19:12.621Z,23.1
2018-06-24T07:20:02.526Z,23.1
2018-06-24T07:20:52.635Z,23.1
2018-06-24T07:21:43.269Z,23.1
2018-06-24T07:22:32.799Z,23.1
2018-06-24T07:23:21.654Z,23.1
2018-06-24T07:24:12.651Z,23.1
2018-06-24T07:25:02.646Z,23.1
2018-06-24T07:25:53.791Z,23.1
2018-06-24T07:26:43.311Z,23.1
2018-06-24T07:27:33.333Z,23.1
2018-06-24T07:28:23.976Z,23.1
2018-06-24T07:29:13.191Z,23.1
2018-06-24T07:30:03.928Z,23.1
2018-06-24T07:30:54.182Z,23.1
2018-06-24T07:31:43.954Z,23.1
2018-06-24T07:32:34.039Z,23.1
2018-06-24T07:33:24.731Z,23.1
2018-06-24T07:34:13.876Z,23.1
2018-06-24T07:35:03.964Z,23.1
2018-06-24T07:35:54.586Z,23.1
2018-06-24T07:36:44.598Z,23.1
2018-06-24T07:37:34.438Z,23.1
2018-06-24T07:38:24.172Z,23.1
2018-06-24T07:39:15.629Z,23.1
2018-06-24T07:40:04.349Z,23.1
2018-06-24T07:40:54.421Z,23.1
2018-06-24T07:41:44.757Z,23.1
2018-06-24T07:42:34.456Z,23.1
2018-06-24T07:43:24.334Z,23.1
2018-06-24T07:44:14.883Z,23.1
2018-06-24T07:45:04.936Z,23.1
2018-06-24T07:45:54.999Z,23.1
2018-06-24T07:46:44.592Z,23.1
2018-06-24T07:47:35.188Z,23.1
2018-06-24T07:48:24.758Z,23.1
2018-06-24T07:49:15.003Z,23.1
2018-06-24T07:50:04.851Z,23.1
2018-06-24T07:50:55.130Z,23.1
2018-06-24T07:51:44.936Z,23.1
2018-06-24T07:52:35.817Z,23.1
2018-06-24T07:53:25.308Z,23.1
2018-06-24T07:54:15.932Z,23.1
2018-06-24T07:55:05.712Z,23.1
2018-06-24T07:55:56.018Z,23.1
2018-06-24T07:56:45.581Z,23.1
2018-06-24T07:57:36.301Z,23.1
2018-06-24T07:58:26.248Z,23.1
2018-06-24T07:59:16.320Z,23.1
2018-06-24T08:00:06.117Z,23.1
2018-06-24T08:00:56.447Z,23.1
2018-06-24T08:01:45.961Z,23.1
2018-06-24T08:02:35.735Z,23.1
2018-06-24T08:03:27.702Z,23.1
2018-06-24T08:04:16.212Z,23.1
2018-06-24T08:05:06.308Z,23.1
2018-06-24T08:05:56.787Z,23.1
2018-06-24T08:06:46.879Z,23.1
2018-06-24T08:07:36.670Z,23.1
2018-06-24T08:08:26.984Z,23.1
2018-06-24T08:09:15.690Z,23.1
2018-06-24T08:10:06.610Z,23.2
2018-06-24T08:10:56.926Z,23.1
2018-06-24T08:11:47.013Z,23.1
2018-06-24T08:12:37.328Z,23.1
2018-06-24T08:13:26.974Z,23.1
2018-06-24T08:14:16.879Z,23.2
2018-06-24T08:15:07.535Z,23.1
2018-06-24T08:15:56.439Z,23.1
2018-06-24T08:16:47.104Z,23.1
2018-06-24T08:17:37.189Z,23.1
2018-06-24T08:18:27.744Z,23.2
2018-06-24T08:19:17.282Z,23.1
2018-06-24T08:20:07.398Z,23.1
2018-06-24T08:20:57.675Z,23.2
2018-06-24T08:21:48.013Z,23.1
2018-06-24T08:22:37.530Z,23.1
2018-06-24T08:23:27.588Z,23.1
2018-06-24T08:24:17.955Z,23.1
2018-06-24T08:25:07.751Z,23.1
2018-06-24T08:25:57.776Z,23.1
2018-06-24T08:26:48.121Z,23.1
2018-06-24T08:27:37.443Z,23.1
2018-06-24T08:28:28.229Z,23.1
2018-06-24T08:29:17.008Z,23.1
2018-06-24T08:30:08.408Z,23.1
2018-06-24T08:30:58.745Z,23.1
2018-06-24T08:31:49.074Z,23.1
2018-06-24T08:32:38.589Z,23.1
2018-06-24T08:33:28.355Z,23.1
2018-06-24T08:34:18.678Z,23.2
2018-06-24T08:35:08.265Z,23.1
2018-06-24T08:35:58.289Z,23.1
2018-06-24T08:36:49.168Z,23.1
2018-06-24T08:37:38.192Z,23.1
2018-06-24T08:38:28.747Z,23.1
2018-06-24T08:39:19.111Z,23.1
2018-06-24T08:40:09.427Z,23.1
2018-06-24T08:40:57.909Z,23.2
2018-06-24T08:41:49.534Z,23.2
2018-06-24T08:42:39.618Z,23.2
2018-06-24T08:43:29.111Z,23.2
2018-06-24T08:44:19.708Z,23.2
2018-06-24T08:45:09.796Z,23.2
2018-06-24T08:45:58.805Z,23.2
2018-06-24T08:46:49.442Z,23.2
2018-06-24T08:47:40.025Z,23.2
2018-06-24T08:48:28.699Z,23.2
2018-06-24T08:49:19.888Z,23.2
2018-06-24T08:50:09.700Z,23.2
2018-06-24T08:51:00.217Z,23.2
2018-06-24T08:51:48.785Z,23.2
2018-06-24T08:52:39.815Z,23.2
2018-06-24T08:53:29.592Z,23.2
2018-06-24T08:54:20.660Z,23.2
2018-06-24T08:55:10.370Z,23.2
2018-06-24T08:55:59.532Z,23.2
2018-06-24T08:56:50.691Z,23.2
2018-06-24T08:57:39.422Z,23.2
2018-06-24T08:58:29.975Z,23.2
2018-06-24T08:59:20.630Z,23.2
2018-06-24T09:00:10.379Z,23.2
2018-06-24T09:01:01.035Z,23.2
2018-06-24T09:01:50.843Z,23.2
2018-06-24T09:02:40.590Z,23.2
2018-06-24T09:03:29.987Z,23.1
2018-06-24T09:04:20.690Z,23.2
2018-06-24T09:05:11.332Z,23.1
2018-06-24T09:06:01.147Z,23.1
2018-06-24T09:06:49.829Z,23.1
2018-06-24T09:07:40.804Z,23.1
2018-06-24T09:08:31.597Z,23.1
2018-06-24T09:09:21.642Z,23.1
2018-06-24T09:10:11.697Z,23.1
2018-06-24T09:11:01.783Z,23.1
2018-06-24T09:11:51.240Z,23.1
2018-06-24T09:12:41.640Z,23.1
2018-06-24T09:13:31.139Z,23.1
2018-06-24T09:14:21.370Z,23.1
